| time (UTC) | temp F | wind direction | speed MPH | gust MPH | rain 1hr in | rain 24hr in | rain mn in | humidity % | barometer mb |
| 20260507124011 | 42 | 274 | 6.0 | 6.0 | 0.00 | 0.00 | 0.00 | 58 | 1014.9 |
| 20260507123011 | 43 | 250 | 5.0 | 5.0 | 0.00 | 0.00 | 0.00 | 58 | 1015.0 |
| 20260507122010 | 44 | 331 | 7.0 | 8.0 | 0.00 | 0.00 | 0.00 | 57 | 1015.1 |
| 20260507121011 | 45 | 322 | 7.0 | 9.0 | 0.00 | 0.00 | 0.00 | 56 | 1015.1 |
| 20260507120010 | 46 | 184 | 6.0 | 8.0 | 0.00 | 0.00 | 0.00 | 56 | 1015.1 |
| 20260507115011 | 46 | 149 | 6.0 | 5.0 | 0.00 | 0.00 | 0.00 | 56 | 1015.0 |
| 20260507114011 | 47 | 142 | 7.0 | 9.0 | 0.00 | 0.00 | 0.00 | 56 | 1014.8 |
| 20260507113011 | 47 | 44 | 5.0 | 6.0 | 0.00 | 0.00 | 0.00 | 56 | 1014.8 |
| 20260507112011 | 47 | 141 | 8.0 | 6.0 | 0.00 | 0.00 | 0.00 | 57 | 1014.8 |
| 20260507111010 | 47 | 141 | 9.0 | 11.0 | 0.00 | 0.00 | 0.00 | 57 | 1014.9 |
| 20260507110011 | 46 | 118 | 8.0 | 10.0 | 0.00 | 0.00 | 0.00 | 58 | 1014.9 |
| 20260507105011 | 46 | 142 | 6.0 | 6.0 | 0.00 | 0.00 | 0.00 | 58 | 1014.8 |
| 20260507104010 | 46 | 155 | 8.0 | 10.0 | 0.00 | 0.00 | 0.00 | 58 | 1014.8 |
| 20260507103011 | 46 | 133 | 9.0 | 8.0 | 0.00 | 0.00 | 0.00 | 58 | 1014.9 |
| 20260507102011 | 46 | 137 | 9.0 | 11.0 | 0.00 | 0.00 | 0.00 | 59 | 1014.8 |
| 20260507101011 | 45 | 139 | 7.0 | 6.0 | 0.00 | 0.00 | 0.00 | 59 | 1014.7 |
| 20260507100011 | 45 | 145 | 9.0 | 12.0 | 0.00 | 0.00 | 0.00 | 59 | 1014.6 |
| 20260507095010 | 46 | 129 | 10.0 | 10.0 | 0.00 | 0.00 | 0.00 | 59 | 1014.5 |
| 20260507094010 | 46 | 148 | 7.0 | 9.0 | 0.00 | 0.00 | 0.00 | 59 | 1014.5 |
| 20260507093010 | 45 | 154 | 6.0 | 9.0 | 0.00 | 0.00 | 0.00 | 59 | 1014.5 |
| 20260507092011 | 45 | 162 | 6.0 | 7.0 | 0.00 | 0.00 | 0.00 | 60 | 1014.4 |
| 20260507091010 | 45 | 209 | 6.0 | 9.0 | 0.00 | 0.00 | 0.00 | 59 | 1014.4 |
| 20260507090011 | 45 | 144 | 8.0 | 13.0 | 0.00 | 0.00 | 0.00 | 59 | 1014.4 |
| 20260507085011 | 45 | 145 | 4.0 | 5.0 | 0.00 | 0.00 | 0.00 | 59 | 1014.4 |
| 20260507084010 | 45 | 192 | 7.0 | 7.0 | 0.00 | 0.00 | 0.00 | 59 | 1014.3 |
| 20260507083011 | 45 | 154 | 6.0 | 8.0 | 0.00 | 0.00 | 0.00 | 58 | 1014.4 |
| 20260507082010 | 45 | 136 | 7.0 | 7.0 | 0.00 | 0.00 | 0.00 | 58 | 1014.2 |
| 20260507081011 | 45 | 149 | 6.0 | 8.0 | 0.00 | 0.00 | 0.00 | 58 | 1014.2 |
| 20260507080010 | 45 | 124 | 7.0 | 8.0 | 0.00 | 0.00 | 0.00 | 58 | 1014.1 |
| 20260507075011 | 45 | 142 | 6.0 | 6.0 | 0.00 | 0.00 | 0.00 | 58 | 1014.1 |
| 20260507074011 | 45 | 188 | 3.0 | 4.0 | 0.00 | 0.00 | 0.00 | 58 | 1014.0 |
| 20260507073011 | 45 | 180 | 4.0 | 5.0 | 0.00 | 0.00 | 0.00 | 58 | 1014.0 |
| 20260507072011 | 46 | 164 | 4.0 | 6.0 | 0.00 | 0.00 | 0.00 | 57 | 1013.8 |
| 20260507071011 | 45 | 201 | 4.0 | 4.0 | 0.00 | 0.00 | 0.00 | 58 | 1013.7 |
| 20260507070013 | 45 | 234 | 3.0 | 4.0 | 0.00 | 0.00 | 0.00 | 58 | 1013.7 |
| 20260507065011 | 46 | 235 | 4.0 | 5.0 | 0.00 | 0.00 | 0.00 | 58 | 1013.6 |
| 20260507064011 | 47 | 119 | 5.0 | 6.0 | 0.00 | 0.00 | 0.00 | 61 | 1013.6 |
| 20260507063011 | 47 | 135 | 4.0 | 3.0 | 0.00 | 0.00 | 0.00 | 62 | 1013.6 |
| 20260507062011 | 46 | 152 | 4.0 | 5.0 | 0.00 | 0.00 | 0.00 | 63 | 1013.5 |
| 20260507061011 | 46 | 175 | 4.0 | 3.0 | 0.00 | 0.00 | 0.00 | 63 | 1013.5 |
| 20260507060011 | 45 | 157 | 5.0 | 5.0 | 0.00 | 0.00 | 0.00 | 66 | 1013.5 |
| 20260507055011 | 44 | 164 | 3.0 | 4.0 | 0.00 | 0.00 | 0.00 | 68 | 1013.4 |
| 20260507054011 | 42 | 167 | 4.0 | 5.0 | 0.00 | 0.00 | 0.00 | 70 | 1013.3 |
| 20260507053011 | 40 | 144 | 5.0 | 5.0 | 0.00 | 0.00 | 0.00 | 72 | 1013.3 |
| 20260507052011 | 38 | 135 | 3.0 | 4.0 | 0.00 | 0.00 | 0.00 | 73 | 1013.2 |
| 20260507051011 | 37 | 302 | 2.0 | 3.0 | 0.00 | 0.00 | 0.00 | 74 | 1013.1 |
| 20260507050010 | 35 | 315 | 4.0 | 4.0 | 0.00 | 0.00 | 0.00 | 75 | 1013.1 |
| 20260507045011 | 34 | 151 | 3.0 | 3.0 | 0.00 | 0.00 | 0.00 | 76 | 1013.2 |
| 20260507044011 | 33 | 125 | 3.0 | 3.0 | 0.00 | 0.00 | 0.00 | 77 | 1013.2 |
| 20260507043011 | 32 | 139 | 3.0 | 3.0 | 0.00 | 0.00 | 0.00 | 77 | 1013.2 |
| 20260507042010 | 30 | 135 | 4.0 | 3.0 | 0.00 | 0.00 | 0.00 | 77 | 1013.1 |
| 20260507041011 | 29 | 158 | 2.0 | 3.0 | 0.00 | 0.00 | 0.00 | 77 | 1013.0 |
| 20260507040010 | 28 | 185 | 1.0 | 2.0 | 0.00 | 0.00 | 0.00 | 77 | 1012.8 |
| 20260507035011 | 27 | 151 | 2.0 | 1.0 | 0.00 | 0.00 | 0.00 | 77 | 1012.8 |
| 20260507034011 | 27 | 315 | 1.0 | 2.0 | 0.00 | 0.00 | 0.00 | 77 | 1012.7 |
| 20260507033011 | 26 | 333 | 1.0 | 0.0 | 0.00 | 0.00 | 0.00 | 76 | 1012.6 |
| 20260507032011 | 26 | 180 | 0.0 | 0.0 | 0.00 | 0.00 | 0.00 | 75 | 1012.7 |
| 20260507031010 | 26 | 165 | 1.0 | 0.0 | 0.00 | 0.00 | 0.00 | 75 | 1012.5 |
| 20260507030011 | 26 | 270 | 0.0 | 0.0 | 0.00 | 0.00 | 0.00 | 75 | 1012.5 |
| 20260507025011 | 26 | 270 | 0.0 | 0.0 | 0.00 | 0.00 | 0.00 | 75 | 1012.5 |
| 20260507024011 | 26 | 270 | 0.0 | 0.0 | 0.00 | 0.00 | 0.00 | 74 | 1012.5 |
| 20260507023011 | 26 | 270 | 0.0 | 1.0 | 0.00 | 0.00 | 0.00 | 74 | 1012.5 |
| 20260507022011 | 26 | 180 | 0.0 | 1.0 | 0.00 | 0.00 | 0.00 | 74 | 1012.4 |
| 20260507021011 | 26 | 270 | 0.0 | 0.0 | 0.00 | 0.00 | 0.00 | 74 | 1012.3 |
| 20260507020010 | 26 | 315 | 1.0 | 2.0 | 0.00 | 0.00 | 0.00 | 74 | 1012.4 |
| 20260507015010 | 26 | 270 | 1.0 | 1.0 | 0.00 | 0.00 | 0.00 | 74 | 1012.4 |
| 20260507014011 | 26 | 270 | 0.0 | 1.0 | 0.00 | 0.00 | 0.00 | 74 | 1012.4 |
| 20260507013011 | 26 | 270 | 1.0 | 1.0 | 0.00 | 0.00 | 0.00 | 74 | 1012.4 |
| 20260507012011 | 27 | 270 | 0.0 | 1.0 | 0.00 | 0.00 | 0.00 | 74 | 1012.4 |
| 20260507011011 | 27 | 270 | 1.0 | 1.0 | 0.00 | 0.00 | 0.00 | 74 | 1012.4 |
| 20260507010011 | 26 | 270 | 1.0 | 1.0 | 0.00 | 0.00 | 0.00 | 73 | 1012.4 |
| 20260507005011 | 26 | 270 | 1.0 | 1.0 | 0.00 | 0.00 | 0.00 | 73 | 1012.3 |
| 20260507004011 | 26 | 270 | 1.0 | 2.0 | 0.00 | 0.00 | 0.00 | 72 | 1012.2 |
| 20260507003011 | 27 | 270 | 1.0 | 2.0 | 0.00 | 0.00 | 0.00 | 71 | 1012.1 |
| 20260507002011 | 27 | 270 | 1.0 | 1.0 | 0.00 | 0.00 | 0.00 | 71 | 1012.0 |
| 20260507001011 | 27 | 270 | 1.0 | 1.0 | 0.00 | 0.00 | 0.00 | 71 | 1011.9 |
| 20260507000011 | 28 | 180 | 1.0 | 1.0 | 0.00 | 0.00 | 0.00 | 70 | 1011.9 |
| 20260506235011 | 28 | 180 | 0.0 | 1.0 | 0.00 | 0.00 | 0.00 | 70 | 1011.8 |
| 20260506234010 | 29 | 158 | 1.0 | 1.0 | 0.00 | 0.00 | 0.00 | 70 | 1011.7 |
| 20260506233011 | 29 | 315 | 0.0 | 0.0 | 0.00 | 0.00 | 0.00 | 69 | 1011.6 |
| 20260506232011 | 30 | 295 | 0.0 | 1.0 | 0.00 | 0.00 | 0.00 | 69 | 1011.6 |
| 20260506231011 | 31 | 325 | 0.0 | 2.0 | 0.00 | 0.00 | 0.00 | 68 | 1011.6 |
| 20260506230011 | 31 | 266 | 1.0 | 2.0 | 0.00 | 0.00 | 0.00 | 68 | 1011.7 |
| 20260506225011 | 31 | 281 | 1.0 | 2.0 | 0.00 | 0.00 | 0.00 | 68 | 1011.7 |
| 20260506224010 | 31 | 240 | 2.0 | 2.0 | 0.00 | 0.00 | 0.00 | 68 | 1011.7 |
| 20260506223011 | 31 | 179 | 1.0 | 2.0 | 0.00 | 0.00 | 0.00 | 67 | 1011.7 |
| 20260506222011 | 32 | 135 | 1.0 | 2.0 | 0.00 | 0.00 | 0.00 | 67 | 1011.6 |
| 20260506221011 | 32 | 208 | 1.0 | 2.0 | 0.00 | 0.00 | 0.00 | 67 | 1011.5 |
| 20260506220011 | 32 | 45 | 1.0 | 1.0 | 0.00 | 0.00 | 0.00 | 67 | 1011.5 |
| 20260506215011 | 32 | 336 | 2.0 | 2.0 | 0.00 | 0.00 | 0.00 | 68 | 1011.4 |
| 20260506214011 | 32 | 307 | 2.0 | 3.0 | 0.00 | 0.00 | 0.00 | 68 | 1011.4 |
| 20260506213010 | 32 | 296 | 2.0 | 3.0 | 0.00 | 0.00 | 0.00 | 69 | 1011.4 |
| 20260506212011 | 31 | 329 | 3.0 | 6.0 | 0.00 | 0.00 | 0.00 | 69 | 1011.3 |
| 20260506211011 | 30 | 315 | 1.0 | 2.0 | 0.00 | 0.00 | 0.00 | 68 | 1011.3 |
| 20260506210011 | 30 | 270 | 1.0 | 2.0 | 0.00 | 0.00 | 0.00 | 67 | 1011.2 |
| 20260506205011 | 30 | 338 | 1.0 | 2.0 | 0.00 | 0.00 | 0.00 | 66 | 1011.1 |
| 20260506204011 | 30 | 270 | 1.0 | 1.0 | 0.00 | 0.00 | 0.00 | 66 | 1011.1 |
| 20260506203011 | 31 | 270 | 1.0 | 2.0 | 0.00 | 0.00 | 0.00 | 66 | 1011.0 |
| 20260506202011 | 31 | 270 | 1.0 | 1.0 | 0.00 | 0.00 | 0.00 | 65 | 1010.9 |
| 20260506201010 | 32 | 270 | 1.0 | 1.0 | 0.00 | 0.00 | 0.00 | 64 | 1010.7 |
| 20260506200011 | 32 | 270 | 1.0 | 2.0 | 0.00 | 0.00 | 0.00 | 64 | 1010.7 |
| 20260506195011 | 33 | 270 | 1.0 | 2.0 | 0.00 | 0.00 | 0.00 | 62 | 1010.6 |
| 20260506194010 | 33 | 270 | 1.0 | 1.0 | 0.00 | 0.00 | 0.00 | 62 | 1010.6 |
| 20260506193010 | 34 | 270 | 1.0 | 2.0 | 0.00 | 0.00 | 0.00 | 61 | 1010.5 |
| 20260506192011 | 35 | 270 | 1.0 | 2.0 | 0.00 | 0.00 | 0.00 | 60 | 1010.4 |
| 20260506191011 | 36 | 270 | 1.0 | 2.0 | 0.00 | 0.00 | 0.00 | 59 | 1010.3 |
| 20260506190011 | 36 | 247 | 1.0 | 2.0 | 0.00 | 0.00 | 0.00 | 58 | 1010.3 |
| 20260506185011 | 37 | 270 | 1.0 | 1.0 | 0.00 | 0.00 | 0.00 | 57 | 1010.2 |
| 20260506184011 | 38 | 247 | 1.0 | 2.0 | 0.00 | 0.00 | 0.00 | 57 | 1010.1 |
| 20260506183011 | 38 | 135 | 1.0 | 1.0 | 0.00 | 0.00 | 0.00 | 56 | 1010.1 |
| 20260506182011 | 39 | 270 | 0.0 | 1.0 | 0.00 | 0.00 | 0.00 | 55 | 1010.1 |
| 20260506181011 | 39 | 270 | 0.0 | 0.0 | 0.00 | 0.00 | 0.00 | 54 | 1010.0 |
| 20260506180011 | 40 | 180 | 1.0 | 1.0 | 0.00 | 0.00 | 0.00 | 53 | 1009.9 |
| 20260506175011 | 41 | 255 | 2.0 | 2.0 | 0.00 | 0.00 | 0.00 | 53 | 1009.9 |
| 20260506174011 | 42 | 180 | 0.0 | 0.0 | 0.00 | 0.00 | 0.00 | 52 | 1009.7 |
| 20260506173011 | 43 | 315 | 1.0 | 1.0 | 0.00 | 0.00 | 0.00 | 51 | 1009.7 |
| 20260506172011 | 44 | 318 | 2.0 | 2.0 | 0.00 | 0.00 | 0.00 | 50 | 1009.6 |
| 20260506171011 | 44 | 294 | 2.0 | 2.0 | 0.00 | 0.00 | 0.00 | 50 | 1009.6 |
| 20260506170012 | 44 | 334 | 3.0 | 6.0 | 0.00 | 0.00 | 0.00 | 49 | 1009.5 |
| 20260506165011 | 45 | 348 | 6.0 | 6.0 | 0.00 | 0.00 | 0.00 | 49 | 1009.5 |
| 20260506164010 | 46 | 332 | 4.0 | 6.0 | 0.00 | 0.00 | 0.00 | 48 | 1009.4 |
| 20260506163011 | 46 | 325 | 8.0 | 11.0 | 0.00 | 0.00 | 0.00 | 48 | 1009.4 |
| 20260506162011 | 47 | 260 | 2.0 | 4.0 | 0.00 | 0.00 | 0.00 | 47 | 1009.2 |
| 20260506161011 | 49 | 236 | 5.0 | 5.0 | 0.00 | 0.00 | 0.00 | 46 | 1009.1 |
| 20260506160011 | 51 | 182 | 5.0 | 4.0 | 0.00 | 0.00 | 0.00 | 46 | 1009.0 |
| 20260506155011 | 52 | 209 | 7.0 | 9.0 | 0.00 | 0.00 | 0.00 | 45 | 1008.8 |
| 20260506154011 | 50 | 267 | 6.0 | 12.0 | 0.00 | 0.00 | 0.00 | 46 | 1008.7 |
| 20260506153011 | 48 | 270 | 5.0 | 10.0 | 0.00 | 0.00 | 0.00 | 47 | 1008.7 |
| 20260506152011 | 47 | 90 | 4.0 | 4.0 | 0.00 | 0.00 | 0.00 | 47 | 1008.6 |
| 20260506151011 | 48 | 118 | 4.0 | 4.0 | 0.00 | 0.00 | 0.00 | 46 | 1008.5 |
| 20260506150011 | 48 | 80 | 5.0 | 7.0 | 0.00 | 0.00 | 0.00 | 46 | 1008.4 |
| 20260506145011 | 49 | 331 | 5.0 | 5.0 | 0.00 | 0.00 | 0.00 | 44 | 1008.4 |
| 20260506144011 | 49 | 238 | 6.0 | 4.0 | 0.00 | 0.00 | 0.00 | 45 | 1008.3 |
| 20260506143011 | 49 | 114 | 8.0 | 3.0 | 0.00 | 0.00 | 0.00 | 46 | 1008.5 |
| 20260506142010 | 49 | 125 | 4.0 | 5.0 | 0.00 | 0.00 | 0.00 | 47 | 1008.3 |
| 20260506141011 | 49 | 28 | 5.0 | 6.0 | 0.00 | 0.00 | 0.00 | 47 | 1008.3 |
| 20260506140011 | 49 | 310 | 4.0 | 4.0 | 0.00 | 0.00 | 0.00 | 47 | 1008.3 |
| 20260506135011 | 49 | 352 | 10.0 | 11.0 | 0.00 | 0.00 | 0.00 | 48 | 1008.3 |
| 20260506134011 | 49 | 99 | 5.0 | 6.0 | 0.00 | 0.00 | 0.00 | 49 | 1008.2 |
| 20260506133011 | 49 | 108 | 5.0 | 6.0 | 0.00 | 0.00 | 0.00 | 49 | 1008.1 |
| 20260506132011 | 49 | 147 | 6.0 | 6.0 | 0.00 | 0.00 | 0.00 | 50 | 1008.2 |
| 20260506131011 | 48 | 144 | 3.0 | 4.0 | 0.00 | 0.00 | 0.00 | 51 | 1008.1 |
| 20260506130011 | 47 | 45 | 2.0 | 3.0 | 0.00 | 0.00 | 0.00 | 51 | 1008.2 |
| 20260506125011 | 47 | 36 | 5.0 | 4.0 | 0.00 | 0.00 | 0.00 | 52 | 1008.1 |